createdAt,value
2023-05-15T00:00:34.450Z,100420.56
2023-05-15T00:03:02.697Z,100420.87
2023-05-15T00:05:30.759Z,100418.92
2023-05-15T00:07:58.520Z,100419.00
2023-05-15T00:10:26.345Z,100417.04
2023-05-15T00:12:55.330Z,100413.50
2023-05-15T00:15:23.657Z,100412.77
2023-05-15T00:17:51.835Z,100413.52
2023-05-15T00:20:20.519Z,100413.89
2023-05-15T00:22:48.363Z,100411.92
2023-05-15T00:25:16.368Z,100412.88
2023-05-15T00:27:44.397Z,100416.96
2023-05-15T00:30:13.496Z,100417.34
2023-05-15T00:32:41.385Z,100416.34
2023-05-15T00:35:09.438Z,100417.84
2023-05-15T00:37:37.397Z,100417.17
2023-05-15T00:40:06.544Z,100411.96
2023-05-15T00:42:35.485Z,100411.46
2023-05-15T00:45:04.009Z,100406.98
2023-05-15T00:47:32.229Z,100407.71
2023-05-15T00:50:00.235Z,100405.24
2023-05-15T00:52:28.043Z,100402.48
2023-05-15T00:54:55.728Z,100405.72
2023-05-15T00:57:24.178Z,100407.84
2023-05-15T00:59:52.240Z,100405.24
2023-05-15T01:02:20.113Z,100400.63
2023-05-15T01:04:49.481Z,100396.69
2023-05-15T01:07:18.102Z,100392.34
2023-05-15T01:09:45.868Z,100389.89
2023-05-15T01:12:15.446Z,100388.42
2023-05-15T01:14:43.350Z,100385.91
2023-05-15T01:17:11.108Z,100389.82
2023-05-15T01:19:40.204Z,100385.22
2023-05-15T01:22:34.990Z,100383.83
2023-05-15T01:25:14.085Z,100386.02
2023-05-15T01:27:51.409Z,100387.63
2023-05-15T01:30:34.247Z,100387.77
2023-05-15T01:33:04.032Z,100390.00
2023-05-15T01:36:16.472Z,100390.45
2023-05-15T01:39:00.646Z,100392.14
2023-05-15T01:41:35.367Z,100388.25
2023-05-15T01:44:09.063Z,100387.58
2023-05-15T01:46:39.419Z,100386.95
2023-05-15T01:49:07.918Z,100384.44
2023-05-15T01:51:35.909Z,100384.98
2023-05-15T01:54:03.767Z,100381.91
2023-05-15T01:56:31.549Z,100385.33
2023-05-15T01:59:00.231Z,100382.94
2023-05-15T02:01:30.079Z,100382.59
2023-05-15T02:03:57.849Z,100382.01
2023-05-15T02:06:25.592Z,100381.95
2023-05-15T02:08:54.565Z,100384.63
2023-05-15T02:11:22.108Z,100381.95
2023-05-15T02:13:49.751Z,100380.69
2023-05-15T02:16:17.421Z,100382.77
2023-05-15T02:18:45.627Z,100383.73
2023-05-15T02:21:15.736Z,100382.86
2023-05-15T02:23:43.776Z,100385.05
2023-05-15T02:26:49.607Z,100384.77
2023-05-15T02:29:50.083Z,100382.73
2023-05-15T02:32:39.336Z,100389.16
2023-05-15T02:35:26.306Z,100387.73
2023-05-15T02:37:55.380Z,100390.73
2023-05-15T02:40:23.887Z,100393.27
2023-05-15T02:42:52.606Z,100394.73
2023-05-15T02:45:21.596Z,100389.59
2023-05-15T02:47:51.340Z,100386.06
2023-05-15T02:50:19.418Z,100381.05
2023-05-15T02:52:47.112Z,100380.92
2023-05-15T02:55:15.175Z,100382.25
2023-05-15T02:57:42.766Z,100382.78
2023-05-15T03:00:11.742Z,100378.14
2023-05-15T03:02:39.532Z,100377.92
2023-05-15T03:05:08.402Z,100381.36
2023-05-15T03:07:36.817Z,100378.15
2023-05-15T03:10:05.348Z,100377.52
2023-05-15T03:12:33.647Z,100380.91
2023-05-15T03:15:01.557Z,100383.77
2023-05-15T03:17:29.828Z,100383.73
2023-05-15T03:19:57.997Z,100386.49
2023-05-15T03:22:25.803Z,100388.95
2023-05-15T03:24:53.775Z,100391.86
2023-05-15T03:27:21.429Z,100386.05
2023-05-15T03:29:50.766Z,100385.41
2023-05-15T03:32:18.460Z,100379.98
2023-05-15T03:34:46.289Z,100377.20
2023-05-15T03:37:13.914Z,100378.66
2023-05-15T03:39:41.556Z,100378.08
2023-05-15T03:42:09.269Z,100378.02
2023-05-15T03:44:37.232Z,100378.59
2023-05-15T03:47:05.159Z,100379.48
2023-05-15T03:49:33.517Z,100383.96
2023-05-15T03:52:01.191Z,100380.89
2023-05-15T03:54:29.250Z,100380.72
2023-05-15T03:56:57.305Z,100379.95
2023-05-15T03:59:24.922Z,100375.40
2023-05-15T04:02:03.560Z,100377.58
2023-05-15T04:04:40.081Z,100382.13
2023-05-15T04:07:07.798Z,100383.94
2023-05-15T04:09:35.165Z,100382.81
2023-05-15T04:12:02.786Z,100383.67
2023-05-15T04:14:30.413Z,100385.22
2023-05-15T04:16:57.867Z,100381.77
2023-05-15T04:19:25.491Z,100382.98
2023-05-15T04:21:53.292Z,100383.27
2023-05-15T04:24:20.830Z,100386.54
2023-05-15T04:26:48.380Z,100376.65
2023-05-15T04:29:16.024Z,100373.23
2023-05-15T04:31:43.437Z,100376.80
2023-05-15T04:34:11.107Z,100379.60
2023-05-15T04:36:40.596Z,100378.91
2023-05-15T04:39:08.291Z,100380.99
2023-05-15T04:41:35.883Z,100385.23
2023-05-15T04:44:03.569Z,100386.46
2023-05-15T04:46:34.455Z,100385.45
2023-05-15T04:49:02.071Z,100384.51
2023-05-15T04:51:29.640Z,100381.66
2023-05-15T04:53:57.112Z,100378.17
2023-05-15T04:56:24.473Z,100375.92
2023-05-15T04:58:51.821Z,100373.79
2023-05-15T05:01:19.196Z,100373.10
2023-05-15T05:03:46.882Z,100374.10
2023-05-15T05:06:14.318Z,100373.15
2023-05-15T05:08:42.146Z,100375.98
2023-05-15T05:11:09.524Z,100376.77
2023-05-15T05:13:36.970Z,100377.16
2023-05-15T05:16:05.022Z,100377.09
2023-05-15T05:18:32.524Z,100371.80
2023-05-15T05:21:01.260Z,100376.29
2023-05-15T05:23:29.864Z,100381.30
2023-05-15T05:25:57.243Z,100380.83
2023-05-15T05:28:24.615Z,100378.55
2023-05-15T05:30:52.208Z,100379.27
2023-05-15T05:33:19.771Z,100376.79
2023-05-15T05:35:47.249Z,100371.78
2023-05-15T05:38:15.191Z,100372.84
2023-05-15T05:40:42.594Z,100369.72
2023-05-15T05:43:10.282Z,100368.70
2023-05-15T05:45:37.669Z,100372.19
2023-05-15T05:48:05.224Z,100370.17
2023-05-15T05:50:33.092Z,100369.67
2023-05-15T05:53:00.525Z,100367.05
2023-05-15T05:55:27.992Z,100362.44
2023-05-15T05:57:55.528Z,100360.07
2023-05-15T06:00:24.638Z,100362.36
2023-05-15T06:02:57.270Z,100358.58
2023-05-15T06:05:25.972Z,100358.56
2023-05-15T06:07:54.453Z,100358.54
2023-05-15T06:10:22.362Z,100356.56
2023-05-15T06:12:50.174Z,100356.23
2023-05-15T06:15:17.529Z,100354.45
2023-05-15T06:17:45.320Z,100354.39
2023-05-15T06:20:12.955Z,100351.66
2023-05-15T06:22:40.752Z,100347.73
2023-05-15T06:25:13.337Z,100343.98
2023-05-15T06:27:41.207Z,100347.10
2023-05-15T06:30:09.597Z,100343.52
2023-05-15T06:32:37.648Z,100342.45
2023-05-15T06:35:06.046Z,100344.52
2023-05-15T06:37:33.535Z,100346.97
2023-05-15T06:40:01.074Z,100343.19
2023-05-15T06:42:28.950Z,100342.56
2023-05-15T06:44:57.510Z,100344.13
2023-05-15T06:47:25.273Z,100346.80
2023-05-15T06:49:53.999Z,100342.33
2023-05-15T06:52:21.427Z,100345.71
2023-05-15T06:54:48.865Z,100339.79
2023-05-15T06:57:16.416Z,100341.73
2023-05-15T06:59:43.981Z,100339.08
2023-05-15T07:02:11.328Z,100338.91
2023-05-15T07:04:38.862Z,100336.55
2023-05-15T07:07:06.873Z,100335.89
2023-05-15T07:09:35.129Z,100334.77
2023-05-15T07:12:03.584Z,100335.77
2023-05-15T07:14:31.316Z,100338.19
2023-05-15T07:16:58.709Z,100334.91
2023-05-15T07:19:26.312Z,100331.92
2023-05-15T07:21:53.707Z,100333.98
2023-05-15T07:24:21.025Z,100331.21
2023-05-15T07:26:58.056Z,100331.40
2023-05-15T07:29:26.729Z,100330.61
2023-05-15T07:31:54.155Z,100335.13
2023-05-15T07:34:21.453Z,100328.81
2023-05-15T07:36:48.985Z,100330.38
2023-05-15T07:39:16.784Z,100325.48
2023-05-15T07:41:46.669Z,100327.31
2023-05-15T07:44:14.036Z,100326.38
2023-05-15T07:46:41.481Z,100324.55
2023-05-15T07:49:10.153Z,100318.66
2023-05-15T07:51:37.542Z,100313.70
2023-05-15T07:54:05.032Z,100316.06
2023-05-15T07:56:32.805Z,100313.13
2023-05-15T07:59:00.271Z,100310.14
2023-05-15T08:01:29.086Z,100310.21
2023-05-15T08:03:58.176Z,100310.86
2023-05-15T08:06:25.722Z,100309.58
2023-05-15T08:08:53.144Z,100305.30
2023-05-15T08:11:21.633Z,100301.58
2023-05-15T08:13:49.133Z,100301.84
2023-05-15T08:16:16.699Z,100298.79
2023-05-15T08:18:44.108Z,100296.63
2023-05-15T08:21:11.520Z,100292.32
2023-05-15T08:23:38.930Z,100297.09
2023-05-15T08:26:06.289Z,100294.65
2023-05-15T08:28:33.865Z,100293.08
2023-05-15T08:31:01.335Z,100287.80
2023-05-15T08:33:29.328Z,100287.31
2023-05-15T08:35:57.946Z,100286.52
2023-05-15T08:38:25.384Z,100284.32
2023-05-15T08:40:53.040Z,100280.50
2023-05-15T08:43:20.915Z,100287.55
2023-05-15T08:45:49.107Z,100284.27
2023-05-15T08:48:20.077Z,100281.70
2023-05-15T08:50:47.634Z,100278.64
2023-05-15T08:53:15.301Z,100272.48
2023-05-15T08:55:42.710Z,100273.90
2023-05-15T08:58:10.099Z,100268.42
2023-05-15T09:00:37.598Z,100273.81
2023-05-15T09:03:05.386Z,100275.36
2023-05-15T09:05:33.983Z,100272.10
2023-05-15T09:08:02.510Z,100264.48
2023-05-15T09:10:30.253Z,100266.39
2023-05-15T09:12:57.927Z,100262.75
2023-05-15T09:15:25.821Z,100258.77
2023-05-15T09:17:53.401Z,100261.21
2023-05-15T09:20:31.779Z,100256.21
2023-05-15T09:23:00.142Z,100255.36
2023-05-15T09:25:42.386Z,100246.52
2023-05-15T09:28:11.460Z,100245.61
2023-05-15T09:30:39.354Z,100253.70
2023-05-15T09:33:06.862Z,100248.07
2023-05-15T09:35:38.297Z,100246.13
2023-05-15T09:38:10.048Z,100237.73
2023-05-15T09:40:38.787Z,100238.52
2023-05-15T09:43:06.221Z,100240.75
2023-05-15T09:45:34.220Z,100238.55
2023-05-15T09:48:04.883Z,100245.16
2023-05-15T09:50:37.544Z,100249.14
2023-05-15T09:53:05.222Z,100245.68
2023-05-15T09:55:33.852Z,100244.76
2023-05-15T09:58:06.274Z,100243.86
2023-05-15T10:00:34.953Z,100241.36
2023-05-15T10:03:03.468Z,100242.13
2023-05-15T10:05:42.545Z,100238.54
2023-05-15T10:08:11.436Z,100238.02
2023-05-15T10:10:39.353Z,100239.17
2023-05-15T10:13:07.474Z,100237.07
2023-05-15T10:15:35.308Z,100236.92
2023-05-15T10:18:03.854Z,100230.19
2023-05-15T10:20:39.820Z,100229.11
2023-05-15T10:23:07.274Z,100223.27
2023-05-15T10:25:45.222Z,100221.09
2023-05-15T10:28:12.673Z,100222.60
2023-05-15T10:30:40.649Z,100229.64
2023-05-15T10:33:09.223Z,100227.36
2023-05-15T10:35:38.997Z,100224.19
2023-05-15T10:38:06.874Z,100221.89
2023-05-15T10:40:38.562Z,100219.58
2023-05-15T10:43:05.919Z,100219.30
2023-05-15T10:45:33.865Z,100213.95
2023-05-15T10:48:02.133Z,100210.66
2023-05-15T10:50:30.279Z,100206.85
2023-05-15T10:52:57.711Z,100207.59
2023-05-15T10:55:25.114Z,100206.95
2023-05-15T10:57:56.044Z,100214.89
2023-05-15T11:00:23.933Z,100211.67
2023-05-15T11:02:56.746Z,100209.23
2023-05-15T11:05:25.582Z,100205.36
2023-05-15T11:08:15.234Z,100198.35
2023-05-15T11:10:42.887Z,100191.29
2023-05-15T11:13:11.703Z,100190.31
2023-05-15T11:15:46.585Z,100188.70
2023-05-15T11:18:14.384Z,100185.65
2023-05-15T11:20:51.741Z,100181.08
2023-05-15T11:23:22.872Z,100180.59
2023-05-15T11:25:54.795Z,100174.36
2023-05-15T11:28:23.620Z,100169.73
2023-05-15T11:30:52.254Z,100170.77
2023-05-15T11:33:20.168Z,100166.20
2023-05-15T11:35:47.811Z,100169.29
2023-05-15T11:38:24.428Z,100161.39
2023-05-15T11:40:55.493Z,100153.16
2023-05-15T11:43:33.226Z,100149.71
2023-05-15T11:46:04.642Z,100145.30
2023-05-15T11:48:33.642Z,100148.34
2023-05-15T11:51:01.559Z,100144.73
2023-05-15T11:53:30.079Z,100140.23
2023-05-15T11:55:57.579Z,100139.66
2023-05-15T11:58:26.736Z,100141.44
2023-05-15T12:00:54.436Z,100141.84
2023-05-15T12:03:24.627Z,100143.58
2023-05-15T12:05:59.544Z,100126.89
2023-05-15T12:08:35.088Z,100122.28
2023-05-15T12:11:03.286Z,100118.40
2023-05-15T12:13:32.037Z,100117.42
2023-05-15T12:16:00.973Z,100114.01
2023-05-15T12:18:30.926Z,100115.73
2023-05-15T12:20:58.504Z,100114.33
2023-05-15T12:23:26.697Z,100116.98
2023-05-15T12:25:58.264Z,100121.46
2023-05-15T12:28:26.243Z,100119.77
2023-05-15T12:30:54.042Z,100116.20
2023-05-15T12:33:23.103Z,100105.27
2023-05-15T12:35:54.954Z,100098.59
2023-05-15T12:38:24.662Z,100095.19
2023-05-15T12:40:55.251Z,100095.13
2023-05-15T12:43:25.892Z,100092.11
2023-05-15T12:45:54.302Z,100088.33
2023-05-15T12:48:22.121Z,100094.19
2023-05-15T12:50:49.937Z,100102.39
2023-05-15T12:53:18.071Z,100098.05
2023-05-15T12:55:46.615Z,100101.11
2023-05-15T12:58:15.745Z,100099.16
2023-05-15T13:00:45.713Z,100096.80
2023-05-15T13:03:13.661Z,100099.00
2023-05-15T13:05:45.167Z,100101.61
2023-05-15T13:08:17.172Z,100099.17
2023-05-15T13:10:45.199Z,100099.81
2023-05-15T13:13:13.027Z,100096.00
2023-05-15T13:15:43.144Z,100098.00
2023-05-15T13:18:11.930Z,100103.63
2023-05-15T13:20:41.456Z,100105.45
2023-05-15T13:23:10.192Z,100107.83
2023-05-15T13:25:37.703Z,100105.86
2023-05-15T13:28:06.063Z,100105.50
2023-05-15T13:30:34.240Z,100105.95
2023-05-15T13:33:02.242Z,100100.68
2023-05-15T13:35:29.929Z,100100.48
2023-05-15T13:37:57.817Z,100099.13
2023-05-15T13:40:25.832Z,100102.46
2023-05-15T13:42:53.611Z,100097.27
2023-05-15T13:45:20.988Z,100094.36
2023-05-15T13:47:48.652Z,100098.02
2023-05-15T13:50:16.362Z,100093.39
2023-05-15T13:52:44.758Z,100093.06
2023-05-15T13:55:12.324Z,100098.75
2023-05-15T13:57:40.789Z,100099.23
2023-05-15T14:00:12.821Z,100096.88
2023-05-15T14:02:41.418Z,100090.56
2023-05-15T14:05:12.741Z,100089.35
2023-05-15T14:07:40.641Z,100088.23
2023-05-15T14:10:08.514Z,100083.21
2023-05-15T14:12:36.939Z,100079.69
2023-05-15T14:15:04.981Z,100081.63
2023-05-15T14:17:32.890Z,100074.92
2023-05-15T14:20:00.618Z,100074.27
2023-05-15T14:22:28.115Z,100073.30
2023-05-15T14:24:55.480Z,100075.51
2023-05-15T14:27:23.018Z,100072.75
2023-05-15T14:29:51.137Z,100073.85
2023-05-15T14:32:18.678Z,100072.41
2023-05-15T14:34:46.452Z,100072.95
2023-05-15T14:37:14.230Z,100072.36
2023-05-15T14:39:42.059Z,100072.05
2023-05-15T14:42:10.391Z,100065.91
2023-05-15T14:44:38.108Z,100059.82
2023-05-15T14:47:09.953Z,100060.55
2023-05-15T14:49:37.748Z,100062.09
2023-05-15T14:52:09.036Z,100056.13
2023-05-15T14:54:37.449Z,100048.40
2023-05-15T14:57:05.284Z,100048.78
2023-05-15T14:59:33.066Z,100048.44
2023-05-15T15:02:00.853Z,100043.87
2023-05-15T15:04:30.186Z,100043.85
2023-05-15T15:06:57.673Z,100044.35
2023-05-15T15:09:26.955Z,100040.61
2023-05-15T15:11:55.875Z,100041.94
2023-05-15T15:14:23.513Z,100035.68
2023-05-15T15:16:50.907Z,100032.36
2023-05-15T15:19:20.124Z,100035.13
2023-05-15T15:21:48.461Z,100033.90
2023-05-15T15:24:17.372Z,100027.75
2023-05-15T15:26:45.026Z,100027.86
2023-05-15T15:29:12.463Z,100029.03
2023-05-15T15:31:39.921Z,100028.45
2023-05-15T15:34:08.782Z,100025.50
2023-05-15T15:36:41.273Z,100024.21
2023-05-15T15:39:11.256Z,100020.52
2023-05-15T15:41:39.277Z,100023.78
2023-05-15T15:44:06.997Z,100025.39
2023-05-15T15:46:34.499Z,100025.24
2023-05-15T15:49:03.919Z,100029.39
2023-05-15T15:51:32.813Z,100026.00
2023-05-15T15:54:00.204Z,100030.70
2023-05-15T15:56:27.939Z,100038.09
2023-05-15T15:58:55.290Z,100028.24
2023-05-15T16:01:23.457Z,100033.52
2023-05-15T16:03:51.197Z,100035.93
2023-05-15T16:06:18.957Z,100031.84
2023-05-15T16:08:46.923Z,100032.54
2023-05-15T16:11:16.076Z,100037.14
2023-05-15T16:13:44.837Z,100026.34
2023-05-15T16:16:12.827Z,100023.30
2023-05-15T16:18:40.740Z,100029.86
2023-05-15T16:21:08.359Z,100025.52
2023-05-15T16:23:36.465Z,100029.86
2023-05-15T16:26:04.641Z,100038.46
2023-05-15T16:28:32.361Z,100029.54
2023-05-15T16:30:59.966Z,100028.36
2023-05-15T16:33:28.494Z,100029.97
2023-05-15T16:35:56.489Z,100028.19
2023-05-15T16:38:24.304Z,100025.83
2023-05-15T16:40:51.767Z,100019.23
2023-05-15T16:43:21.544Z,100015.38
2023-05-15T16:45:48.924Z,100022.46
2023-05-15T16:48:16.387Z,100023.06
2023-05-15T16:50:44.026Z,100019.94
2023-05-15T16:53:11.967Z,100022.23
2023-05-15T16:55:39.734Z,100026.09
2023-05-15T16:58:08.333Z,100022.00
2023-05-15T17:00:35.952Z,100019.17
2023-05-15T17:03:05.393Z,100016.79
2023-05-15T17:05:33.584Z,100017.48
2023-05-15T17:08:01.340Z,100020.71
2023-05-15T17:10:28.953Z,100017.33
2023-05-15T17:12:56.425Z,100017.79
2023-05-15T17:15:24.638Z,100023.02
2023-05-15T17:17:52.416Z,100023.66
2023-05-15T17:20:20.007Z,100032.98
2023-05-15T17:22:47.590Z,100035.42
2023-05-15T17:25:15.312Z,100031.48
2023-05-15T17:27:43.233Z,100029.04
2023-05-15T17:30:11.571Z,100028.71
2023-05-15T17:32:39.727Z,100026.97
2023-05-15T17:35:08.197Z,100025.64
2023-05-15T17:37:36.509Z,100030.73
2023-05-15T17:40:05.537Z,100032.03
2023-05-15T17:42:34.131Z,100037.13
2023-05-15T17:45:02.252Z,100041.98
2023-05-15T17:47:30.365Z,100044.21
2023-05-15T17:49:57.874Z,100050.34
2023-05-15T17:52:25.278Z,100050.90
2023-05-15T17:54:52.793Z,100053.66
2023-05-15T17:57:20.755Z,100054.48
2023-05-15T17:59:48.343Z,100056.95
2023-05-15T18:02:16.021Z,100062.77
2023-05-15T18:04:44.034Z,100067.45
2023-05-15T18:07:11.779Z,100065.19
2023-05-15T18:09:39.433Z,100065.73
2023-05-15T18:12:07.209Z,100074.02
2023-05-15T18:14:35.852Z,100072.02
2023-05-15T18:17:03.452Z,100074.73
2023-05-15T18:19:31.036Z,100076.79
2023-05-15T18:22:02.393Z,100078.31
2023-05-15T18:24:30.313Z,100083.29
2023-05-15T18:26:57.721Z,100087.80
2023-05-15T18:29:25.817Z,100092.56
2023-05-15T18:31:53.339Z,100090.72
2023-05-15T18:34:20.951Z,100090.64
2023-05-15T18:36:51.664Z,100095.48
2023-05-15T18:39:19.180Z,100098.94
2023-05-15T18:41:46.648Z,100095.22
2023-05-15T18:44:14.055Z,100098.60
2023-05-15T18:46:41.643Z,100099.45
2023-05-15T18:49:09.244Z,100101.89
2023-05-15T18:51:37.067Z,100098.39
2023-05-15T18:54:04.502Z,100100.93
2023-05-15T18:56:32.454Z,100106.41
2023-05-15T18:58:59.978Z,100113.36
2023-05-15T19:01:27.724Z,100116.14
2023-05-15T19:03:55.280Z,100113.89
2023-05-15T19:06:22.988Z,100113.02
2023-05-15T19:08:51.115Z,100111.38
2023-05-15T19:11:19.028Z,100112.61
2023-05-15T19:13:46.604Z,100110.70
2023-05-15T19:16:14.526Z,100106.95
2023-05-15T19:18:44.202Z,100108.67
2023-05-15T19:21:11.602Z,100108.71
2023-05-15T19:23:39.098Z,100107.70
2023-05-15T19:26:06.682Z,100107.02
2023-05-15T19:28:34.396Z,100109.73
2023-05-15T19:31:01.847Z,100117.09
2023-05-15T19:33:29.782Z,100119.30
2023-05-15T19:35:57.330Z,100124.17
2023-05-15T19:38:25.097Z,100127.04
2023-05-15T19:40:52.772Z,100127.97
2023-05-15T19:43:20.143Z,100124.20
2023-05-15T19:45:47.666Z,100124.27
2023-05-15T19:48:15.108Z,100122.29
2023-05-15T19:50:42.478Z,100124.88
2023-05-15T19:53:11.734Z,100126.96
2023-05-15T19:55:39.401Z,100127.89
2023-05-15T19:58:06.773Z,100128.92
2023-05-15T20:00:34.542Z,100130.36
2023-05-15T20:03:02.178Z,100132.02
2023-05-15T20:05:30.021Z,100133.55
2023-05-15T20:07:57.601Z,100137.77
2023-05-15T20:10:25.246Z,100141.61
2023-05-15T20:12:53.175Z,100142.55
2023-05-15T20:15:20.569Z,100142.65
2023-05-15T20:17:48.021Z,100141.39
2023-05-15T20:20:16.378Z,100148.15
2023-05-15T20:22:44.176Z,100148.54
2023-05-15T20:25:11.567Z,100151.70
2023-05-15T20:27:39.144Z,100151.56
2023-05-15T20:30:08.294Z,100156.61
2023-05-15T20:32:36.647Z,100156.71
2023-05-15T20:35:04.784Z,100158.73
2023-05-15T20:37:32.979Z,100154.71
2023-05-15T20:40:00.500Z,100157.73
2023-05-15T20:42:28.766Z,100161.34
2023-05-15T20:44:56.335Z,100158.30
2023-05-15T20:47:23.901Z,100155.58
2023-05-15T20:49:51.795Z,100157.05
2023-05-15T20:52:20.467Z,100157.89
2023-05-15T20:54:48.444Z,100156.45
2023-05-15T20:57:15.893Z,100154.09
2023-05-15T20:59:43.654Z,100156.69
2023-05-15T21:02:11.062Z,100152.91
2023-05-15T21:04:39.036Z,100150.27
2023-05-15T21:07:06.844Z,100145.92
2023-05-15T21:09:34.394Z,100141.41
2023-05-15T21:12:03.484Z,100142.10
2023-05-15T21:14:31.479Z,100144.34
2023-05-15T21:16:59.085Z,100149.00
2023-05-15T21:19:26.568Z,100148.02
2023-05-15T21:21:54.092Z,100155.52
2023-05-15T21:24:22.585Z,100155.66
2023-05-15T21:26:50.186Z,100152.59
2023-05-15T21:29:17.614Z,100156.39
2023-05-15T21:31:45.222Z,100152.71
2023-05-15T21:34:12.775Z,100157.58
2023-05-15T21:36:40.430Z,100156.28
2023-05-15T21:39:09.211Z,100155.19
2023-05-15T21:41:36.883Z,100158.25
2023-05-15T21:44:04.448Z,100160.11
2023-05-15T21:46:32.086Z,100153.38
2023-05-15T21:49:00.764Z,100154.64
2023-05-15T21:51:28.600Z,100153.84
2023-05-15T21:53:56.641Z,100163.11
2023-05-15T21:56:24.213Z,100162.52
2023-05-15T21:58:54.853Z,100162.35
2023-05-15T22:01:22.371Z,100166.41
2023-05-15T22:03:50.477Z,100163.01
2023-05-15T22:06:18.299Z,100155.55
2023-05-15T22:08:45.822Z,100154.85
2023-05-15T22:11:13.728Z,100158.65
2023-05-15T22:13:41.276Z,100155.73
2023-05-15T22:16:09.204Z,100156.97
2023-05-15T22:18:37.481Z,100153.89
2023-05-15T22:21:05.414Z,100153.80
2023-05-15T22:23:32.938Z,100155.55
2023-05-15T22:26:00.821Z,100153.14
2023-05-15T22:28:29.356Z,100151.42
2023-05-15T22:30:56.882Z,100150.00
2023-05-15T22:33:24.692Z,100148.95
2023-05-15T22:35:52.932Z,100147.42
2023-05-15T22:38:20.646Z,100145.83
2023-05-15T22:40:50.650Z,100145.98
2023-05-15T22:43:18.270Z,100145.50
2023-05-15T22:45:45.794Z,100146.89
2023-05-15T22:48:15.059Z,100142.52
2023-05-15T22:50:43.708Z,100139.90
2023-05-15T22:53:11.433Z,100140.06
2023-05-15T22:55:39.018Z,100136.54
2023-05-15T22:58:06.522Z,100129.77
2023-05-15T23:00:34.170Z,100126.42
2023-05-15T23:03:01.872Z,100125.83
2023-05-15T23:05:30.988Z,100121.04
2023-05-15T23:07:58.992Z,100121.91
2023-05-15T23:10:26.878Z,100118.02
2023-05-15T23:12:54.690Z,100117.63
2023-05-15T23:15:22.413Z,100118.64
2023-05-15T23:17:50.281Z,100114.46
2023-05-15T23:20:18.234Z,100112.72
2023-05-15T23:22:45.734Z,100116.83
2023-05-15T23:25:13.519Z,100115.96
2023-05-15T23:27:41.174Z,100116.09
2023-05-15T23:30:09.683Z,100117.04
2023-05-15T23:32:37.759Z,100112.36
2023-05-15T23:35:06.040Z,100109.88
2023-05-15T23:37:33.698Z,100107.16
2023-05-15T23:40:01.726Z,100106.55
2023-05-15T23:42:30.354Z,100106.24
2023-05-15T23:44:57.794Z,100103.50
2023-05-15T23:47:25.566Z,100104.31
2023-05-15T23:49:53.132Z,100104.27
2023-05-15T23:52:20.577Z,100098.89
2023-05-15T23:54:48.781Z,100104.51
2023-05-15T23:57:16.798Z,100106.54
2023-05-15T23:59:44.367Z,100105.92
